sensor_id;sensor_type;location;lat;lon;timestamp;pressure;altitude;pressure_sealevel;temperature;humidity
6528;BME280;3297;42.664;23.256;2022-07-30T00:01:02;50344.75;;;-139.84;58.69
6528;BME280;3297;42.664;23.256;2022-07-30T00:03:28;50387.53;;;-139.84;58.79
6528;BME280;3297;42.664;23.256;2022-07-30T00:05:55;50393.34;;;-139.84;58.68
6528;BME280;3297;42.664;23.256;2022-07-30T00:08:21;50393.34;;;-139.84;58.56
6528;BME280;3297;42.664;23.256;2022-07-30T00:10:48;50428.34;;;-139.84;58.54
6528;BME280;3297;42.664;23.256;2022-07-30T00:13:14;50406.97;;;-139.84;59.10
6528;BME280;3297;42.664;23.256;2022-07-30T00:15:39;50389.47;;;-139.84;58.85
6528;BME280;3297;42.664;23.256;2022-07-30T00:18:05;50397.25;;;-139.84;58.92
6528;BME280;3297;42.664;23.256;2022-07-30T00:20:30;50428.34;;;-139.84;58.87
6528;BME280;3297;42.664;23.256;2022-07-30T00:22:56;50373.91;;;-139.84;59.04
6528;BME280;3297;42.664;23.256;2022-07-30T00:25:22;50401.13;;;-139.84;59.35
6528;BME280;3297;42.664;23.256;2022-07-30T00:27:48;50377.81;;;-139.84;59.00
6528;BME280;3297;42.664;23.256;2022-07-30T00:30:13;50416.69;;;-139.84;59.04
6528;BME280;3297;42.664;23.256;2022-07-30T00:32:39;50393.34;;;-139.84;58.81
6528;BME280;3297;42.664;23.256;2022-07-30T00:35:05;50368.09;;;-139.84;59.09
6528;BME280;3297;42.664;23.256;2022-07-30T00:37:31;50420.56;;;-139.84;59.05
6528;BME280;3297;42.664;23.256;2022-07-30T00:39:56;50397.25;;;-139.84;59.49
6528;BME280;3297;42.664;23.256;2022-07-30T00:42:22;50381.69;;;-139.84;59.90
6528;BME280;3297;42.664;23.256;2022-07-30T00:44:51;50410.84;;;-139.84;59.59
6528;BME280;3297;42.664;23.256;2022-07-30T00:47:18;50385.59;;;-139.84;60.11
6528;BME280;3297;42.664;23.256;2022-07-30T00:49:43;50399.19;;;-139.84;59.96
6528;BME280;3297;42.664;23.256;2022-07-30T00:52:09;50370.03;;;-139.84;59.99
6528;BME280;3297;42.664;23.256;2022-07-30T00:54:35;50393.34;;;-139.84;60.60
6528;BME280;3297;42.664;23.256;2022-07-30T00:57:00;50366.16;;;-139.84;61.09
6528;BME280;3297;42.664;23.256;2022-07-30T00:59:26;50408.91;;;-139.84;61.36
6528;BME280;3297;42.664;23.256;2022-07-30T01:01:53;50362.25;;;-139.84;61.42
6528;BME280;3297;42.664;23.256;2022-07-30T01:04:19;50377.81;;;-139.84;61.84
6528;BME280;3297;42.664;23.256;2022-07-30T01:06:45;50416.69;;;-139.84;61.97
6528;BME280;3297;42.664;23.256;2022-07-30T01:09:10;50401.13;;;-139.84;61.54
6528;BME280;3297;42.664;23.256;2022-07-30T01:11:40;50432.22;;;-139.84;61.04
6528;BME280;3297;42.664;23.256;2022-07-30T01:14:08;50381.69;;;-139.84;60.64
6528;BME280;3297;42.664;23.256;2022-07-30T01:16:35;50393.34;;;-139.84;60.43
6528;BME280;3297;42.664;23.256;2022-07-30T01:19:05;50385.59;;;-139.84;60.24
6528;BME280;3297;42.664;23.256;2022-07-30T01:22:23;50434.19;;;-139.84;60.14
6528;BME280;3297;42.664;23.256;2022-07-30T01:27:47;50412.78;;;-139.84;60.44
6528;BME280;3297;42.664;23.256;2022-07-30T01:30:19;50397.25;;;-139.84;60.31
6528;BME280;3297;42.664;23.256;2022-07-30T01:32:46;50397.25;;;-139.84;60.16
6528;BME280;3297;42.664;23.256;2022-07-30T01:35:13;50401.13;;;-139.84;60.65
6528;BME280;3297;42.664;23.256;2022-07-30T01:37:41;50368.09;;;-139.84;60.65
6528;BME280;3297;42.664;23.256;2022-07-30T01:40:09;50362.25;;;-139.84;60.35
6528;BME280;3297;42.664;23.256;2022-07-30T01:42:36;50391.41;;;-139.84;60.19
6528;BME280;3297;42.664;23.256;2022-07-30T01:45:03;50406.97;;;-139.84;60.49
6528;BME280;3297;42.664;23.256;2022-07-30T01:47:32;50405.03;;;-139.84;60.58
6528;BME280;3297;42.664;23.256;2022-07-30T01:49:59;50401.13;;;-139.84;60.04
6528;BME280;3297;42.664;23.256;2022-07-30T01:52:26;50436.13;;;-139.84;60.29
6528;BME280;3297;42.664;23.256;2022-07-30T01:54:55;50393.34;;;-139.84;60.80
6528;BME280;3297;42.664;23.256;2022-07-30T01:57:24;50370.03;;;-139.84;60.84
6528;BME280;3297;42.664;23.256;2022-07-30T01:59:54;50373.91;;;-139.84;60.87
6528;BME280;3297;42.664;23.256;2022-07-30T02:02:22;50414.75;;;-139.84;60.81
6528;BME280;3297;42.664;23.256;2022-07-30T02:04:48;50405.03;;;-139.84;61.37
6528;BME280;3297;42.664;23.256;2022-07-30T02:09:45;50385.59;;;-139.84;61.94
6528;BME280;3297;42.664;23.256;2022-07-30T02:12:14;50381.69;;;-139.84;61.79
6528;BME280;3297;42.664;23.256;2022-07-30T02:15:22;50424.47;;;-139.84;61.34
6528;BME280;3297;42.664;23.256;2022-07-30T02:18:03;50406.97;;;-139.84;61.34
6528;BME280;3297;42.664;23.256;2022-07-30T02:20:31;50430.28;;;-139.84;61.23
6528;BME280;3297;42.664;23.256;2022-07-30T02:23:01;50416.69;;;-139.84;61.78
6528;BME280;3297;42.664;23.256;2022-07-30T02:25:32;50408.91;;;-139.84;61.85
6528;BME280;3297;42.664;23.256;2022-07-30T02:28:02;50418.63;;;-139.84;61.55
6528;BME280;3297;42.664;23.256;2022-07-30T02:30:32;50401.13;;;-139.84;61.71
6528;BME280;3297;42.664;23.256;2022-07-30T02:33:02;50385.59;;;-139.84;62.00
6528;BME280;3297;42.664;23.256;2022-07-30T02:35:30;50416.69;;;-139.84;62.02
6528;BME280;3297;42.664;23.256;2022-07-30T02:37:56;50385.59;;;-139.84;62.39
6528;BME280;3297;42.664;23.256;2022-07-30T02:40:22;50424.47;;;-139.84;62.77
6528;BME280;3297;42.664;23.256;2022-07-30T02:42:50;50385.59;;;-139.84;63.23
6528;BME280;3297;42.664;23.256;2022-07-30T02:45:18;50410.84;;;-139.84;62.92
6528;BME280;3297;42.664;23.256;2022-07-30T02:47:48;50395.31;;;-139.84;62.96
6528;BME280;3297;42.664;23.256;2022-07-30T02:50:16;50381.69;;;-139.84;63.00
6528;BME280;3297;42.664;23.256;2022-07-30T02:52:44;50416.69;;;-139.84;63.44
6528;BME280;3297;42.664;23.256;2022-07-30T02:55:11;50397.25;;;-139.84;63.41
6528;BME280;3297;42.664;23.256;2022-07-30T02:57:40;50403.06;;;-139.84;63.22
6528;BME280;3297;42.664;23.256;2022-07-30T03:00:07;50397.25;;;-139.84;63.16
6528;BME280;3297;42.664;23.256;2022-07-30T03:02:33;50420.56;;;-139.84;62.77
6528;BME280;3297;42.664;23.256;2022-07-30T03:05:02;50387.53;;;-139.84;62.74
6528;BME280;3297;42.664;23.256;2022-07-30T03:07:29;50381.69;;;-139.84;62.63
6528;BME280;3297;42.664;23.256;2022-07-30T03:09:57;50403.06;;;-139.84;62.66
6528;BME280;3297;42.664;23.256;2022-07-30T03:12:24;50436.13;;;-139.84;62.70
6528;BME280;3297;42.664;23.256;2022-07-30T03:14:50;50373.91;;;-139.84;62.57
6528;BME280;3297;42.664;23.256;2022-07-30T03:17:17;50430.28;;;-139.84;62.81
6528;BME280;3297;42.664;23.256;2022-07-30T03:19:44;50403.06;;;-139.84;63.04
6528;BME280;3297;42.664;23.256;2022-07-30T03:22:11;50405.03;;;-139.84;62.89
6528;BME280;3297;42.664;23.256;2022-07-30T03:24:39;50408.91;;;-139.84;63.02
6528;BME280;3297;42.664;23.256;2022-07-30T03:27:08;50401.13;;;-139.84;63.66
6528;BME280;3297;42.664;23.256;2022-07-30T03:29:36;50370.03;;;-139.84;63.86
6528;BME280;3297;42.664;23.256;2022-07-30T03:32:03;50395.31;;;-139.84;63.91
6528;BME280;3297;42.664;23.256;2022-07-30T03:34:32;50381.69;;;-139.84;64.06
6528;BME280;3297;42.664;23.256;2022-07-30T03:37:00;50397.25;;;-139.84;64.43
6528;BME280;3297;42.664;23.256;2022-07-30T03:39:26;50405.03;;;-139.84;64.02
6528;BME280;3297;42.664;23.256;2022-07-30T03:41:53;50420.56;;;-139.84;64.12
6528;BME280;3297;42.664;23.256;2022-07-30T03:44:20;50420.56;;;-139.84;64.32
6528;BME280;3297;42.664;23.256;2022-07-30T03:46:47;50408.91;;;-139.84;64.27
6528;BME280;3297;42.664;23.256;2022-07-30T03:49:15;50408.91;;;-139.84;63.90
6528;BME280;3297;42.664;23.256;2022-07-30T03:51:42;50383.63;;;-139.84;64.00
6528;BME280;3297;42.664;23.256;2022-07-30T03:54:09;50428.34;;;-139.84;64.01
6528;BME280;3297;42.664;23.256;2022-07-30T03:56:36;50414.75;;;-139.84;64.06
6528;BME280;3297;42.664;23.256;2022-07-30T03:59:02;50428.34;;;-139.84;63.93
6528;BME280;3297;42.664;23.256;2022-07-30T04:01:28;50371.97;;;-139.84;64.02
6528;BME280;3297;42.664;23.256;2022-07-30T04:03:54;50420.56;;;-139.84;63.95
6528;BME280;3297;42.664;23.256;2022-07-30T04:06:20;50420.56;;;-139.84;64.03
6528;BME280;3297;42.664;23.256;2022-07-30T04:08:46;50389.47;;;-139.84;64.01
6528;BME280;3297;42.664;23.256;2022-07-30T04:11:12;50420.56;;;-139.84;64.02
6528;BME280;3297;42.664;23.256;2022-07-30T04:13:37;50393.34;;;-139.84;63.92
6528;BME280;3297;42.664;23.256;2022-07-30T04:16:17;50412.78;;;-139.84;63.67
6528;BME280;3297;42.664;23.256;2022-07-30T04:18:47;50399.19;;;-139.84;64.12
6528;BME280;3297;42.664;23.256;2022-07-30T04:21:15;50410.84;;;-139.84;64.03
6528;BME280;3297;42.664;23.256;2022-07-30T04:23:42;50397.25;;;-139.84;63.71
6528;BME280;3297;42.664;23.256;2022-07-30T04:26:09;50405.03;;;-139.84;63.72
6528;BME280;3297;42.664;23.256;2022-07-30T04:28:35;50420.56;;;-139.84;63.13
6528;BME280;3297;42.664;23.256;2022-07-30T04:31:02;50432.22;;;-139.84;63.03
6528;BME280;3297;42.664;23.256;2022-07-30T04:33:29;50408.91;;;-139.84;62.69
6528;BME280;3297;42.664;23.256;2022-07-30T04:35:55;50410.84;;;-139.84;62.90
6528;BME280;3297;42.664;23.256;2022-07-30T04:38:20;50408.91;;;-139.84;62.87
6528;BME280;3297;42.664;23.256;2022-07-30T04:40:46;50447.78;;;-139.84;62.96
6528;BME280;3297;42.664;23.256;2022-07-30T04:43:12;50420.56;;;-139.84;62.84
6528;BME280;3297;42.664;23.256;2022-07-30T04:45:38;50410.84;;;-139.84;63.04
6528;BME280;3297;42.664;23.256;2022-07-30T04:48:05;50445.84;;;-139.84;63.07
6528;BME280;3297;42.664;23.256;2022-07-30T04:50:32;50428.34;;;-139.84;62.96
6528;BME280;3297;42.664;23.256;2022-07-30T04:53:00;50451.66;;;-139.84;62.36
6528;BME280;3297;42.664;23.256;2022-07-30T04:55:27;50414.75;;;-139.84;62.18
6528;BME280;3297;42.664;23.256;2022-07-30T04:57:53;50443.91;;;-139.84;61.06
6528;BME280;3297;42.664;23.256;2022-07-30T05:00:20;50471.09;;;-139.84;60.90
6528;BME280;3297;42.664;23.256;2022-07-30T05:02:48;50405.03;;;-139.84;59.95
6528;BME280;3297;42.664;23.256;2022-07-30T05:05:14;50428.34;;;-139.84;58.87
6528;BME280;3297;42.664;23.256;2022-07-30T05:07:42;50424.47;;;-139.84;57.71
6528;BME280;3297;42.664;23.256;2022-07-30T05:10:10;50469.16;;;-139.84;57.22
6528;BME280;3297;42.664;23.256;2022-07-30T05:12:36;50440.00;;;-139.84;56.64
6528;BME280;3297;42.664;23.256;2022-07-30T05:15:03;50432.22;;;-139.84;56.01
6528;BME280;3297;42.664;23.256;2022-07-30T05:17:29;50461.38;;;-139.84;55.52
6528;BME280;3297;42.664;23.256;2022-07-30T05:19:55;50500.25;;;-139.84;55.99
6528;BME280;3297;42.664;23.256;2022-07-30T05:22:20;50445.84;;;-139.84;55.96
6528;BME280;3297;42.664;23.256;2022-07-30T05:24:46;50486.66;;;-139.84;56.23
6528;BME280;3297;42.664;23.256;2022-07-30T05:27:12;50426.41;;;-139.84;55.79
6528;BME280;3297;42.664;23.256;2022-07-30T05:29:37;50438.06;;;-139.84;55.58
6528;BME280;3297;42.664;23.256;2022-07-30T05:32:03;50443.91;;;-139.84;55.07
6528;BME280;3297;42.664;23.256;2022-07-30T05:34:28;50459.44;;;-139.84;54.75
6528;BME280;3297;42.664;23.256;2022-07-30T05:36:54;50455.56;;;-139.84;54.65
6528;BME280;3297;42.664;23.256;2022-07-30T05:39:19;50459.44;;;-139.84;54.72
6528;BME280;3297;42.664;23.256;2022-07-30T05:41:45;50471.09;;;-139.84;54.15
6528;BME280;3297;42.664;23.256;2022-07-30T05:44:10;50482.78;;;-139.84;53.93
6528;BME280;3297;42.664;23.256;2022-07-30T05:46:36;50463.34;;;-139.84;53.66
6528;BME280;3297;42.664;23.256;2022-07-30T05:49:01;50465.28;;;-139.84;52.82
6528;BME280;3297;42.664;23.256;2022-07-30T05:51:27;50502.19;;;-139.84;52.19
6528;BME280;3297;42.664;23.256;2022-07-30T05:53:53;50482.78;;;-139.84;51.82
6528;BME280;3297;42.664;23.256;2022-07-30T05:56:19;50471.09;;;-139.84;51.29
6528;BME280;3297;42.664;23.256;2022-07-30T05:58:44;50480.81;;;-139.84;50.94
6528;BME280;3297;42.664;23.256;2022-07-30T06:01:10;50484.72;;;-139.84;50.75
6528;BME280;3297;42.664;23.256;2022-07-30T06:03:36;50527.47;;;-139.84;49.83
6528;BME280;3297;42.664;23.256;2022-07-30T06:06:02;50486.66;;;-139.84;48.81
6528;BME280;3297;42.664;23.256;2022-07-30T06:08:28;50455.56;;;-139.84;48.45
6528;BME280;3297;42.664;23.256;2022-07-30T06:10:54;50463.34;;;-139.84;47.89
6528;BME280;3297;42.664;23.256;2022-07-30T06:13:20;50529.41;;;-139.84;46.43
6528;BME280;3297;42.664;23.256;2022-07-30T06:15:45;50494.44;;;-139.84;45.75
6528;BME280;3297;42.664;23.256;2022-07-30T06:18:11;50513.88;;;-139.84;45.82
6528;BME280;3297;42.664;23.256;2022-07-30T06:20:36;50498.31;;;-139.84;45.37
6528;BME280;3297;42.664;23.256;2022-07-30T06:23:02;50558.56;;;-139.84;44.38
6528;BME280;3297;42.664;23.256;2022-07-30T06:25:28;50502.19;;;-139.84;42.84
6528;BME280;3297;42.664;23.256;2022-07-30T06:27:53;50519.69;;;-139.84;41.27
6528;BME280;3297;42.664;23.256;2022-07-30T06:30:19;50502.19;;;-139.84;41.55
6528;BME280;3297;42.664;23.256;2022-07-30T06:32:44;50494.44;;;-139.84;40.85
6528;BME280;3297;42.664;23.256;2022-07-30T06:35:11;50529.41;;;-139.84;40.14
6528;BME280;3297;42.664;23.256;2022-07-30T06:37:37;50521.63;;;-139.84;39.67
6528;BME280;3297;42.664;23.256;2022-07-30T06:40:03;50543.03;;;-139.84;40.11
6528;BME280;3297;42.664;23.256;2022-07-30T06:42:29;50509.97;;;-139.84;39.14
6528;BME280;3297;42.664;23.256;2022-07-30T06:44:55;50531.34;;;-139.84;37.71
6528;BME280;3297;42.664;23.256;2022-07-30T06:47:21;50529.41;;;-139.84;37.91
6528;BME280;3297;42.664;23.256;2022-07-30T06:49:50;50498.31;;;-139.84;36.70
6528;BME280;3297;42.664;23.256;2022-07-30T06:52:17;50521.63;;;-139.84;37.10
6528;BME280;3297;42.664;23.256;2022-07-30T06:54:42;50517.75;;;-139.84;36.78
6528;BME280;3297;42.664;23.256;2022-07-30T06:57:08;50527.47;;;-139.84;36.00
6528;BME280;3297;42.664;23.256;2022-07-30T06:59:33;50544.97;;;-139.84;36.00
6528;BME280;3297;42.664;23.256;2022-07-30T07:01:59;50511.91;;;-139.84;35.63
6528;BME280;3297;42.664;23.256;2022-07-30T07:04:26;50490.53;;;-139.84;35.07
6528;BME280;3297;42.664;23.256;2022-07-30T07:06:51;50490.53;;;-139.84;35.11
6528;BME280;3297;42.664;23.256;2022-07-30T07:09:17;50527.47;;;-139.84;34.75
6528;BME280;3297;42.664;23.256;2022-07-30T07:11:43;50541.06;;;-139.84;35.30
6528;BME280;3297;42.664;23.256;2022-07-30T07:14:08;50513.88;;;-139.84;34.53
6528;BME280;3297;42.664;23.256;2022-07-30T07:16:34;50519.69;;;-139.84;33.65
6528;BME280;3297;42.664;23.256;2022-07-30T07:19:00;50521.63;;;-139.84;33.38
6528;BME280;3297;42.664;23.256;2022-07-30T07:21:25;50502.19;;;-139.84;33.52
6528;BME280;3297;42.664;23.256;2022-07-30T07:23:51;50504.16;;;-139.84;33.27
6528;BME280;3297;42.664;23.256;2022-07-30T07:26:16;50504.16;;;-139.84;32.91
6528;BME280;3297;42.664;23.256;2022-07-30T07:28:42;50525.53;;;-139.84;32.54
6528;BME280;3297;42.664;23.256;2022-07-30T07:31:08;50543.03;;;-139.84;32.10
6528;BME280;3297;42.664;23.256;2022-07-30T07:33:34;50533.31;;;-139.84;32.24
6528;BME280;3297;42.664;23.256;2022-07-30T07:36:00;50543.03;;;-139.84;31.71
6528;BME280;3297;42.664;23.256;2022-07-30T07:38:25;50502.19;;;-139.84;31.57
6528;BME280;3297;42.664;23.256;2022-07-30T07:40:52;50482.78;;;-139.84;31.40
6528;BME280;3297;42.664;23.256;2022-07-30T07:43:17;50498.31;;;-139.84;31.16
6528;BME280;3297;42.664;23.256;2022-07-30T07:45:43;50486.66;;;-139.84;31.32
6528;BME280;3297;42.664;23.256;2022-07-30T07:48:10;50492.47;;;-139.84;31.24
6528;BME280;3297;42.664;23.256;2022-07-30T07:50:36;50467.22;;;-139.84;31.24
6528;BME280;3297;42.664;23.256;2022-07-30T07:53:01;50535.25;;;-139.84;31.10
6528;BME280;3297;42.664;23.256;2022-07-30T07:55:27;50506.09;;;-139.84;31.18
6528;BME280;3297;42.664;23.256;2022-07-30T07:57:53;50494.44;;;-139.84;30.46
6528;BME280;3297;42.664;23.256;2022-07-30T08:00:19;50504.16;;;-139.84;30.88
6528;BME280;3297;42.664;23.256;2022-07-30T08:02:45;50506.09;;;-139.84;30.23
6528;BME280;3297;42.664;23.256;2022-07-30T08:05:11;50478.88;;;-139.84;30.29
6528;BME280;3297;42.664;23.256;2022-07-30T08:07:40;50494.44;;;-139.84;29.84
6528;BME280;3297;42.664;23.256;2022-07-30T08:10:07;50490.53;;;-139.84;30.18
6528;BME280;3297;42.664;23.256;2022-07-30T08:12:33;50492.47;;;-139.84;30.69
6528;BME280;3297;42.664;23.256;2022-07-30T08:14:59;50486.66;;;-139.84;30.05
6528;BME280;3297;42.664;23.256;2022-07-30T08:17:25;50463.34;;;-139.84;30.57
6528;BME280;3297;42.664;23.256;2022-07-30T08:19:50;50517.75;;;-139.84;30.33
6528;BME280;3297;42.664;23.256;2022-07-30T08:22:16;50480.81;;;-139.84;29.70
6528;BME280;3297;42.664;23.256;2022-07-30T08:24:43;50488.59;;;-139.84;29.80
6528;BME280;3297;42.664;23.256;2022-07-30T08:27:08;50486.66;;;-139.84;30.19
6528;BME280;3297;42.664;23.256;2022-07-30T08:29:34;50482.78;;;-139.84;29.42
6528;BME280;3297;42.664;23.256;2022-07-30T08:32:00;50494.44;;;-139.84;29.12
6528;BME280;3297;42.664;23.256;2022-07-30T08:34:25;50506.09;;;-139.84;29.04
6528;BME280;3297;42.664;23.256;2022-07-30T08:36:51;50517.75;;;-139.84;28.58
6528;BME280;3297;42.664;23.256;2022-07-30T08:39:17;50513.88;;;-139.84;28.54
6528;BME280;3297;42.664;23.256;2022-07-30T08:41:42;50463.34;;;-139.84;28.93
6528;BME280;3297;42.664;23.256;2022-07-30T08:44:09;50480.81;;;-139.84;28.82
6528;BME280;3297;42.664;23.256;2022-07-30T08:46:40;50467.22;;;-139.84;28.63
6528;BME280;3297;42.664;23.256;2022-07-30T08:49:08;50482.78;;;-139.84;27.95
6528;BME280;3297;42.664;23.256;2022-07-30T08:51:35;50486.66;;;-139.84;27.70
6528;BME280;3297;42.664;23.256;2022-07-30T08:54:05;50486.66;;;-139.84;27.84
6528;BME280;3297;42.664;23.256;2022-07-30T08:56:31;50478.88;;;-139.84;28.59
6528;BME280;3297;42.664;23.256;2022-07-30T08:58:59;50463.34;;;-139.84;28.27
6528;BME280;3297;42.664;23.256;2022-07-30T09:01:26;50509.97;;;-139.84;27.95
6528;BME280;3297;42.664;23.256;2022-07-30T09:03:52;50471.09;;;-139.84;27.47
6528;BME280;3297;42.664;23.256;2022-07-30T09:06:17;50492.47;;;-139.84;27.31
6528;BME280;3297;42.664;23.256;2022-07-30T09:08:43;50490.53;;;-139.84;27.18
6528;BME280;3297;42.664;23.256;2022-07-30T09:11:09;50469.16;;;-139.84;27.21
6528;BME280;3297;42.664;23.256;2022-07-30T09:13:37;50482.78;;;-139.84;27.42
6528;BME280;3297;42.664;23.256;2022-07-30T09:16:04;50482.78;;;-139.84;26.90
6528;BME280;3297;42.664;23.256;2022-07-30T09:18:35;50443.91;;;-139.84;26.51
6528;BME280;3297;42.664;23.256;2022-07-30T09:21:25;50498.31;;;-139.84;27.62
6528;BME280;3297;42.664;23.256;2022-07-30T09:24:00;50455.56;;;-139.84;26.69
6528;BME280;3297;42.664;23.256;2022-07-30T09:26:27;50476.94;;;-139.84;26.70
6528;BME280;3297;42.664;23.256;2022-07-30T09:29:16;50451.66;;;-139.84;26.24
6528;BME280;3297;42.664;23.256;2022-07-30T09:31:55;50463.34;;;-139.84;26.91
6528;BME280;3297;42.664;23.256;2022-07-30T09:37:17;50434.19;;;-139.84;26.12
6528;BME280;3297;42.664;23.256;2022-07-30T09:39:43;50455.56;;;-139.84;26.22
6528;BME280;3297;42.664;23.256;2022-07-30T09:42:20;50478.88;;;-139.84;26.71
6528;BME280;3297;42.664;23.256;2022-07-30T09:44:47;50463.34;;;-139.84;26.29
6528;BME280;3297;42.664;23.256;2022-07-30T09:47:30;50471.09;;;-139.84;25.97
6528;BME280;3297;42.664;23.256;2022-07-30T09:50:11;50428.34;;;-139.84;26.37
6528;BME280;3297;42.664;23.256;2022-07-30T09:52:40;50463.34;;;-139.84;26.05
6528;BME280;3297;42.664;23.256;2022-07-30T09:55:07;50469.16;;;-139.84;25.88
6528;BME280;3297;42.664;23.256;2022-07-30T09:57:33;50424.47;;;-139.84;26.34
6528;BME280;3297;42.664;23.256;2022-07-30T10:00:15;50432.22;;;-139.84;26.08
6528;BME280;3297;42.664;23.256;2022-07-30T10:02:42;50457.50;;;-139.84;25.95
6528;BME280;3297;42.664;23.256;2022-07-30T10:05:14;50461.38;;;-139.84;26.40
6528;BME280;3297;42.664;23.256;2022-07-30T10:10:18;50436.13;;;-139.84;25.72
6528;BME280;3297;42.664;23.256;2022-07-30T10:12:45;50445.84;;;-139.84;25.79
6528;BME280;3297;42.664;23.256;2022-07-30T10:15:12;50416.69;;;-139.84;25.92
6528;BME280;3297;42.664;23.256;2022-07-30T10:17:40;50436.13;;;-139.84;26.13
6528;BME280;3297;42.664;23.256;2022-07-30T10:20:09;50420.56;;;-139.84;25.87
6528;BME280;3297;42.664;23.256;2022-07-30T10:22:37;50436.13;;;-139.84;25.45
6528;BME280;3297;42.664;23.256;2022-07-30T10:25:03;50476.94;;;-139.84;25.47
6528;BME280;3297;42.664;23.256;2022-07-30T10:27:30;50440.00;;;-139.84;25.53
6528;BME280;3297;42.664;23.256;2022-07-30T10:29:57;50455.56;;;-139.84;25.47
6528;BME280;3297;42.664;23.256;2022-07-30T10:32:25;50451.66;;;-139.84;26.11
6528;BME280;3297;42.664;23.256;2022-07-30T10:34:51;50451.66;;;-139.84;25.82
6528;BME280;3297;42.664;23.256;2022-07-30T10:37:18;50428.34;;;-139.84;25.92
6528;BME280;3297;42.664;23.256;2022-07-30T10:39:51;50428.34;;;-139.84;25.89
6528;BME280;3297;42.664;23.256;2022-07-30T10:42:43;50418.63;;;-139.84;26.05
6528;BME280;3297;42.664;23.256;2022-07-30T10:45:18;50432.22;;;-139.84;25.93
6528;BME280;3297;42.664;23.256;2022-07-30T10:47:48;50416.69;;;-139.84;26.19
6528;BME280;3297;42.664;23.256;2022-07-30T10:50:19;50395.31;;;-139.84;26.04
6528;BME280;3297;42.664;23.256;2022-07-30T10:55:25;50432.22;;;-139.84;25.75
6528;BME280;3297;42.664;23.256;2022-07-30T10:58:04;50420.56;;;-139.84;26.02
6528;BME280;3297;42.664;23.256;2022-07-30T11:00:33;50434.19;;;-139.84;26.06
6528;BME280;3297;42.664;23.256;2022-07-30T11:03:28;50440.00;;;-139.84;26.10
6528;BME280;3297;42.664;23.256;2022-07-30T11:08:40;50401.13;;;-139.84;26.09
6528;BME280;3297;42.664;23.256;2022-07-30T11:13:51;50414.75;;;-139.84;26.60
6528;BME280;3297;42.664;23.256;2022-07-30T11:16:18;50405.03;;;-139.84;26.92
6528;BME280;3297;42.664;23.256;2022-07-30T11:19:15;50428.34;;;-139.84;26.79
6528;BME280;3297;42.664;23.256;2022-07-30T11:21:43;50408.91;;;-139.84;27.08
6528;BME280;3297;42.664;23.256;2022-07-30T11:24:44;50420.56;;;-139.84;26.98
6528;BME280;3297;42.664;23.256;2022-07-30T11:29:58;50405.03;;;-139.84;26.85
6528;BME280;3297;42.664;23.256;2022-07-30T11:32:31;50445.84;;;-139.84;27.08
6528;BME280;3297;42.664;23.256;2022-07-30T11:38:08;50428.34;;;-139.84;26.68
6528;BME280;3297;42.664;23.256;2022-07-30T11:43:24;50395.31;;;-139.84;27.03
6528;BME280;3297;42.664;23.256;2022-07-30T11:45:52;50424.47;;;-139.84;26.95
6528;BME280;3297;42.664;23.256;2022-07-30T11:48:29;50418.63;;;-139.84;27.00
6528;BME280;3297;42.664;23.256;2022-07-30T11:50:55;50426.41;;;-139.84;27.13
6528;BME280;3297;42.664;23.256;2022-07-30T11:53:21;50420.56;;;-139.84;27.45
6528;BME280;3297;42.664;23.256;2022-07-30T11:55:58;50443.91;;;-139.84;27.72
6528;BME280;3297;42.664;23.256;2022-07-30T11:58:31;50436.13;;;-139.84;28.00
6528;BME280;3297;42.664;23.256;2022-07-30T12:00:59;50408.91;;;-139.84;27.68
6528;BME280;3297;42.664;23.256;2022-07-30T12:03:29;50401.13;;;-139.84;28.03
6528;BME280;3297;42.664;23.256;2022-07-30T12:06:05;50424.47;;;-139.84;28.45
6528;BME280;3297;42.664;23.256;2022-07-30T12:08:45;50408.91;;;-139.84;28.49
6528;BME280;3297;42.664;23.256;2022-07-30T12:11:11;50416.69;;;-139.84;28.67
6528;BME280;3297;42.664;23.256;2022-07-30T12:13:39;50441.94;;;-139.84;29.11
6528;BME280;3297;42.664;23.256;2022-07-30T12:16:09;50440.00;;;-139.84;28.58
6528;BME280;3297;42.664;23.256;2022-07-30T12:18:36;50405.03;;;-139.84;28.27
6528;BME280;3297;42.664;23.256;2022-07-30T12:21:07;50447.78;;;-139.84;28.14
6528;BME280;3297;42.664;23.256;2022-07-30T12:23:34;50395.31;;;-139.84;28.13
6528;BME280;3297;42.664;23.256;2022-07-30T12:26:00;50379.75;;;-139.84;28.69
6528;BME280;3297;42.664;23.256;2022-07-30T12:28:27;50445.84;;;-139.84;28.71
6528;BME280;3297;42.664;23.256;2022-07-30T12:30:54;50424.47;;;-139.84;28.89
6528;BME280;3297;42.664;23.256;2022-07-30T12:33:21;50416.69;;;-139.84;28.90
6528;BME280;3297;42.664;23.256;2022-07-30T12:35:49;50381.69;;;-139.84;29.18
6528;BME280;3297;42.664;23.256;2022-07-30T12:38:16;50432.22;;;-139.84;29.29
6528;BME280;3297;42.664;23.256;2022-07-30T12:43:44;50405.03;;;-139.84;29.62
6528;BME280;3297;42.664;23.256;2022-07-30T12:46:12;50414.75;;;-139.84;29.34
6528;BME280;3297;42.664;23.256;2022-07-30T12:48:50;50393.34;;;-139.84;29.34
6528;BME280;3297;42.664;23.256;2022-07-30T12:51:17;50416.69;;;-139.84;29.26
6528;BME280;3297;42.664;23.256;2022-07-30T12:53:43;50416.69;;;-139.84;29.50
6528;BME280;3297;42.664;23.256;2022-07-30T12:56:10;50443.91;;;-139.84;29.34
6528;BME280;3297;42.664;23.256;2022-07-30T12:58:36;50408.91;;;-139.84;29.32
6528;BME280;3297;42.664;23.256;2022-07-30T13:01:02;50364.19;;;-139.84;29.46
6528;BME280;3297;42.664;23.256;2022-07-30T13:03:28;50408.91;;;-139.84;29.32
6528;BME280;3297;42.664;23.256;2022-07-30T13:06:11;50389.47;;;-139.84;29.24
6528;BME280;3297;42.664;23.256;2022-07-30T13:08:46;50420.56;;;-139.84;29.15
6528;BME280;3297;42.664;23.256;2022-07-30T13:11:13;50443.91;;;-139.84;29.17
6528;BME280;3297;42.664;23.256;2022-07-30T13:13:38;50408.91;;;-139.84;29.21
6528;BME280;3297;42.664;23.256;2022-07-30T13:16:06;50428.34;;;-139.84;29.50
6528;BME280;3297;42.664;23.256;2022-07-30T13:18:34;50443.91;;;-139.84;29.62
6528;BME280;3297;42.664;23.256;2022-07-30T13:21:00;50416.69;;;-139.84;30.11
6528;BME280;3297;42.664;23.256;2022-07-30T13:23:27;50393.34;;;-139.84;30.74
6528;BME280;3297;42.664;23.256;2022-07-30T13:25:54;50428.34;;;-139.84;30.99